Ever Decent — 9V7952 — position and weather

sailwx.info

Track history (hours):
 
Tides and Currents Weather Stations Pressure Air Temp Water Temp Dewpoint Dewpoint Depression Visibility Wind Speed Wind Dir Waves Ship Positions

Ever Decent

Last reported at 2014-Jul-28 00:22 UTC. Time now 2014-Jul-29 00:35 UTC.
Position N 34°05' W 127°19'.

Length 294 m; draft 11.1 m.

Type: Cargo ship. MMSI: 564904000.

Date/timePositionNaut miles runAvg speedWind from/ knotsBaromVisibWave heightAir tempDewpointWater temp
2014-Jul-28 00:22N 34°05' W 127°19'1114.1
2014-Jul-27 23:33N 33°57' W 127°09'1414.3
2014-Jul-27 22:33N 33°48' W 126°56'2914.4
2014-Jul-27 20:33N 33°29' W 126°29'4614.7
2014-Jul-27 17:28N 32°59' W 125°48'1415.1
2014-Jul-27 16:33N 32°50' W 125°36'1514.9
2014-Jul-27 15:33N 32°40' W 125°23'3015.0
2014-Jul-27 13:33N 32°20' W 124°56'1514.9
2014-Jul-27 12:32N 32°10' W 124°43'3114.9
2014-Jul-27 10:27N 31°49' W 124°16'1315.0
2014-Jul-27 09:33N 31°40' W 124°05'1515.1
2014-Jul-27 08:33N 31°30' W 123°52'1515.1
2014-Jul-27 07:33N 31°19' W 123°38'1515.0
2014-Jul-27 06:32N 31°09' W 123°25'1714.9
2014-Jul-27 05:24N 30°57' W 123°11'1315.0
2014-Jul-27 04:31N 30°48' W 122°60'1414.9
2014-Jul-27 03:33N 30°39' W 122°47'1614.9
2014-Jul-27 02:30N 30°28' W 122°34'1814.8
2014-Jul-27 01:18N 30°16' W 122°20'2720.6
2014-Jul-27 00:00N 30°00' W 121°54'4 8.1 320 / 131017.0 2.2 4.023.020.122.0
2014-Jul-26 23:33N 29°58' W 121°57'1514.9
2014-Jul-26 22:32N 29°49' W 121°43'1615.0
2014-Jul-26 21:27N 29°39' W 121°28'1614.9
2014-Jul-26 20:24N 29°31' W 121°13'1315.0
2014-Jul-26 19:33N 29°23' W 121°01'1514.8
2014-Jul-26 18:33N 29°14' W 120°48'1817.9
2014-Jul-26 17:33N 29°04' W 120°31'1919.5
2014-Jul-26 16:33N 28°52' W 120°13'1616.0
2014-Jul-26 15:33N 28°43' W 119°59'1514.7
2014-Jul-26 14:33N 28°34' W 119°45'1514.8
2014-Jul-26 13:33N 28°25' W 119°32'1414.4
2014-Jul-26 12:33N 28°17' W 119°18'1514.5
2014-Jul-26 11:31N 28°08' W 119°05'1414.8
2014-Jul-26 10:33N 27°59' W 118°52'21014.8
2014-Jul-25 20:19N 25°55' W 115°41'30515.8
2014-Jul-25 01:00N 22°54' W 111°12'9513.5 290 / 91011.0 2.2 1.032.029.427.0
2014-Jul-24 18:00N 22°00' W 109°48'37715.7 310 / 191011.0 3.025.023.625.0
2014-Jul-23 18:00N 18°18' W 104°24'32413.5 310 / 91012.0 1.034.032.732.0
2014-Jul-22 18:00N 15°48' W 099°24'36315.1 300 / 131013.0 1.034.032.730.0
2014-Jul-21 18:00N 13°06' W 093°48'   300 / 91012.0 1.035.033.732.0
Track history (hours):
 
Tides and Currents Weather Stations Pressure Air Temp Water Temp Dewpoint Dewpoint Depression Visibility Wind Speed Wind Dir Waves Ship Positions

Ever Decent

Last reported at 2014-Jul-28 00:22 UTC. Time now 2014-Jul-29 00:35 UTC.
Position N 34°05' W 127°19'.

Length 294 m; draft 11.1 m.

Type: Cargo ship. MMSI: 564904000.

Date/timePositionNaut miles runAvg speedWind from/ knotsBaromVisibWave heightAir tempDewpointWater temp
2014-Jul-28 00:22N 34°05' W 127°19'1114.1
2014-Jul-27 23:33N 33°57' W 127°09'1414.3
2014-Jul-27 22:33N 33°48' W 126°56'2914.4
2014-Jul-27 20:33N 33°29' W 126°29'4614.7
2014-Jul-27 17:28N 32°59' W 125°48'1415.1
2014-Jul-27 16:33N 32°50' W 125°36'1514.9
2014-Jul-27 15:33N 32°40' W 125°23'3015.0
2014-Jul-27 13:33N 32°20' W 124°56'1514.9
2014-Jul-27 12:32N 32°10' W 124°43'3114.9
2014-Jul-27 10:27N 31°49' W 124°16'1315.0
2014-Jul-27 09:33N 31°40' W 124°05'1515.1
2014-Jul-27 08:33N 31°30' W 123°52'1515.1
2014-Jul-27 07:33N 31°19' W 123°38'1515.0
2014-Jul-27 06:32N 31°09' W 123°25'1714.9
2014-Jul-27 05:24N 30°57' W 123°11'1315.0
2014-Jul-27 04:31N 30°48' W 122°60'1414.9
2014-Jul-27 03:33N 30°39' W 122°47'1614.9
2014-Jul-27 02:30N 30°28' W 122°34'1814.8
2014-Jul-27 01:18N 30°16' W 122°20'2720.6
2014-Jul-27 00:00N 30°00' W 121°54'4 8.1 320 / 131017.0 2.2 4.023.020.122.0
2014-Jul-26 23:33N 29°58' W 121°57'1514.9
2014-Jul-26 22:32N 29°49' W 121°43'1615.0
2014-Jul-26 21:27N 29°39' W 121°28'1614.9
2014-Jul-26 20:24N 29°31' W 121°13'1315.0
2014-Jul-26 19:33N 29°23' W 121°01'1514.8
2014-Jul-26 18:33N 29°14' W 120°48'1817.9
2014-Jul-26 17:33N 29°04' W 120°31'1919.5
2014-Jul-26 16:33N 28°52' W 120°13'1616.0
2014-Jul-26 15:33N 28°43' W 119°59'1514.7
2014-Jul-26 14:33N 28°34' W 119°45'1514.8
2014-Jul-26 13:33N 28°25' W 119°32'1414.4
2014-Jul-26 12:33N 28°17' W 119°18'1514.5
2014-Jul-26 11:31N 28°08' W 119°05'1414.8
2014-Jul-26 10:33N 27°59' W 118°52'21014.8
2014-Jul-25 20:19N 25°55' W 115°41'30515.8
2014-Jul-25 01:00N 22°54' W 111°12'9513.5 290 / 91011.0 2.2 1.032.029.427.0
2014-Jul-24 18:00N 22°00' W 109°48'37715.7 310 / 191011.0 3.025.023.625.0
2014-Jul-23 18:00N 18°18' W 104°24'32413.5 310 / 91012.0 1.034.032.732.0
2014-Jul-22 18:00N 15°48' W 099°24'36315.1 300 / 131013.0 1.034.032.730.0
2014-Jul-21 18:00N 13°06' W 093°48'   300 / 91012.0 1.035.033.732.0

Dump ship's entire track history